createdAt,value
2018-11-03T00:00:29.034Z,102436.12
2018-11-03T00:02:58.705Z,102439.41
2018-11-03T00:05:30.948Z,102440.31
2018-11-03T00:08:00.378Z,102444.16
2018-11-03T00:10:29.994Z,102444.49
2018-11-03T00:12:59.402Z,102438.78
2018-11-03T00:15:28.810Z,102440.48
2018-11-03T00:17:58.294Z,102433.86
2018-11-03T00:20:28.221Z,102434.16
2018-11-03T00:22:57.652Z,102431.66
2018-11-03T00:25:27.181Z,102440.31
2018-11-03T00:27:56.647Z,102437.15
2018-11-03T00:30:26.137Z,102435.04
2018-11-03T00:32:55.619Z,102434.95
2018-11-03T00:35:25.194Z,102429.66
2018-11-03T00:37:54.734Z,102439.73
2018-11-03T00:40:24.142Z,102431.98
2018-11-03T00:42:53.599Z,102438.44
2018-11-03T00:45:22.980Z,102443.09
2018-11-03T00:47:52.486Z,102432.69
2018-11-03T00:50:22.078Z,102435.97
2018-11-03T00:52:51.597Z,102440.33
2018-11-03T00:55:21.104Z,102435.45
2018-11-03T00:57:50.534Z,102433.19
2018-11-03T01:00:20.131Z,102431.00
2018-11-03T01:02:50.378Z,102428.02
2018-11-03T01:05:19.886Z,102433.16
2018-11-03T01:07:49.379Z,102435.25
2018-11-03T01:10:18.974Z,102438.14
2018-11-03T01:12:48.883Z,102434.82
2018-11-03T01:15:18.894Z,102432.67
2018-11-03T01:17:48.365Z,102441.67
2018-11-03T01:20:18.395Z,102446.75
2018-11-03T01:22:48.495Z,102440.28
2018-11-03T01:25:17.959Z,102437.52
2018-11-03T01:27:47.438Z,102435.77
2018-11-03T01:30:17.631Z,102433.97
2018-11-03T01:32:47.077Z,102434.38
2018-11-03T01:35:17.304Z,102428.31
2018-11-03T01:37:46.739Z,102429.70
2018-11-03T01:40:16.175Z,102427.91
2018-11-03T01:42:45.594Z,102435.45
2018-11-03T01:45:15.043Z,102435.52
2018-11-03T01:47:44.498Z,102433.46
2018-11-03T01:50:13.911Z,102431.66
2018-11-03T01:52:43.624Z,102432.83
2018-11-03T01:55:13.065Z,102433.60
2018-11-03T01:57:42.478Z,102436.67
2018-11-03T02:00:12.244Z,102422.64
2018-11-03T02:02:42.373Z,102426.31
2018-11-03T02:05:11.855Z,102428.86
2018-11-03T02:07:41.531Z,102434.48
2018-11-03T02:10:12.682Z,102431.55
2018-11-03T02:12:43.225Z,102428.86
2018-11-03T02:15:12.692Z,102428.42
2018-11-03T02:17:42.106Z,102434.04
2018-11-03T02:20:12.031Z,102428.04
2018-11-03T02:22:41.628Z,102434.98
2018-11-03T02:25:11.119Z,102435.69
2018-11-03T02:27:40.736Z,102448.56
2018-11-03T02:30:11.654Z,102444.67
2018-11-03T02:32:41.579Z,102451.17
2018-11-03T02:35:11.946Z,102448.56
2018-11-03T02:37:41.957Z,102444.62
2018-11-03T02:40:13.084Z,102452.43
2018-11-03T02:42:43.107Z,102452.84
2018-11-03T02:45:12.759Z,102459.14
2018-11-03T02:47:43.233Z,102463.80
2018-11-03T02:50:13.998Z,102467.02
2018-11-03T02:52:43.754Z,102459.70
2018-11-03T02:55:13.219Z,102460.14
2018-11-03T02:57:42.988Z,102466.03
2018-11-03T03:00:12.627Z,102461.40
2018-11-03T03:02:42.103Z,102459.68
2018-11-03T03:05:11.895Z,102455.31
2018-11-03T03:07:41.546Z,102453.94
2018-11-03T03:10:12.619Z,102452.30
2018-11-03T03:12:42.207Z,102438.02
2018-11-03T03:15:12.822Z,102440.66
2018-11-03T03:17:42.677Z,102439.78
2018-11-03T03:20:13.051Z,102444.45
2018-11-03T03:22:42.761Z,102442.83
2018-11-03T03:25:12.650Z,102447.13
2018-11-03T03:27:42.008Z,102445.34
2018-11-03T03:30:11.853Z,102446.91
2018-11-03T03:32:41.849Z,102438.88
2018-11-03T03:35:11.542Z,102443.17
2018-11-03T03:37:40.952Z,102442.84
2018-11-03T03:40:10.856Z,102448.41
2018-11-03T03:42:40.551Z,102446.98
2018-11-03T03:45:10.767Z,102440.80
2018-11-03T03:47:40.281Z,102447.47
2018-11-03T03:50:11.129Z,102455.13
2018-11-03T03:52:40.521Z,102458.50
2018-11-03T03:55:10.174Z,102454.48
2018-11-03T03:57:39.741Z,102459.16
2018-11-03T04:00:11.332Z,102458.62
2018-11-03T04:02:41.116Z,102460.23
2018-11-03T04:05:10.754Z,102468.05
2018-11-03T04:07:40.266Z,102464.06
2018-11-03T04:10:10.483Z,102469.18
2018-11-03T04:12:40.075Z,102469.62
2018-11-03T04:15:09.806Z,102477.94
2018-11-03T04:17:39.421Z,102466.29
2018-11-03T04:20:09.208Z,102463.31
2018-11-03T04:22:38.690Z,102467.58
2018-11-03T04:25:08.134Z,102465.38
2018-11-03T04:27:37.619Z,102465.35
2018-11-03T04:30:10.636Z,102464.81
2018-11-03T04:32:40.612Z,102466.88
2018-11-03T04:35:10.897Z,102450.84
2018-11-03T04:37:41.104Z,102461.89
2018-11-03T04:40:12.027Z,102460.13
2018-11-03T04:42:42.151Z,102452.38
2018-11-03T04:45:12.328Z,102460.09
2018-11-03T04:47:41.745Z,102458.78
2018-11-03T04:50:12.208Z,102456.37
2018-11-03T04:52:41.670Z,102448.12
2018-11-03T04:55:11.663Z,102449.30
2018-11-03T04:57:41.613Z,102449.33
2018-11-03T05:00:11.570Z,102449.30
2018-11-03T05:02:41.270Z,102451.88
2018-11-03T05:05:10.732Z,102450.87
2018-11-03T05:07:40.149Z,102447.61
2018-11-03T05:10:10.197Z,102454.92
2018-11-03T05:12:39.687Z,102452.41
2018-11-03T05:15:09.224Z,102455.20
2018-11-03T05:17:38.622Z,102459.16
2018-11-03T05:20:08.077Z,102466.02
2018-11-03T05:22:37.635Z,102468.09
2018-11-03T05:25:07.206Z,102462.81
2018-11-03T05:27:36.614Z,102462.38
2018-11-03T05:30:06.730Z,102459.80
2018-11-03T05:32:36.174Z,102460.23
2018-11-03T05:35:06.763Z,102462.41
2018-11-03T05:37:36.437Z,102461.46
2018-11-03T05:40:06.268Z,102471.27
2018-11-03T05:42:35.691Z,102474.11
2018-11-03T05:45:05.288Z,102464.88
2018-11-03T05:47:35.035Z,102466.23
2018-11-03T05:50:04.451Z,102475.64
2018-11-03T05:52:33.865Z,102470.09
2018-11-03T05:55:03.424Z,102476.31
2018-11-03T05:57:32.936Z,102475.94
2018-11-03T06:00:02.391Z,102489.58
2018-11-03T06:02:31.852Z,102492.75
2018-11-03T06:05:01.349Z,102499.22
2018-11-03T06:07:30.758Z,102494.48
2018-11-03T06:10:00.185Z,102495.22
2018-11-03T06:12:29.633Z,102495.33
2018-11-03T06:14:59.087Z,102507.58
2018-11-03T06:17:28.491Z,102502.20
2018-11-03T06:19:57.992Z,102500.87
2018-11-03T06:22:27.440Z,102503.48
2018-11-03T06:24:56.901Z,102506.62
2018-11-03T06:27:26.371Z,102513.77
2018-11-03T06:29:55.779Z,102509.64
2018-11-03T06:32:25.821Z,102515.63
2018-11-03T06:34:55.232Z,102514.78
2018-11-03T06:37:24.740Z,102520.44
2018-11-03T06:39:54.133Z,102523.11
2018-11-03T06:42:23.581Z,102523.98
2018-11-03T06:44:52.951Z,102520.56
2018-11-03T06:47:22.524Z,102519.79
2018-11-03T06:49:52.440Z,102530.08
2018-11-03T06:52:21.879Z,102534.10
2018-11-03T06:54:51.273Z,102525.66
2018-11-03T06:57:20.667Z,102526.33
2018-11-03T06:59:50.802Z,102524.30
2018-11-03T07:02:20.183Z,102524.16
2018-11-03T07:04:49.605Z,102528.16
2018-11-03T07:07:19.051Z,102529.48
2018-11-03T07:09:48.516Z,102531.92
2018-11-03T07:12:18.073Z,102521.61
2018-11-03T07:14:47.395Z,102519.88
2018-11-03T07:17:17.268Z,102514.50
2018-11-03T07:19:46.716Z,102518.45
2018-11-03T07:22:16.138Z,102513.81
2018-11-03T07:24:45.583Z,102515.97
2018-11-03T07:27:15.008Z,102513.89
2018-11-03T07:29:44.519Z,102513.63
2018-11-03T07:32:13.855Z,102508.37
2018-11-03T07:34:43.268Z,102508.23
2018-11-03T07:37:12.679Z,102511.43
2018-11-03T07:39:42.081Z,102507.82
2018-11-03T07:42:11.490Z,102504.47
2018-11-03T07:44:41.120Z,102504.83
2018-11-03T07:47:10.607Z,102502.01
2018-11-03T07:49:39.987Z,102508.47
2018-11-03T07:52:09.504Z,102502.59
2018-11-03T07:54:38.926Z,102502.64
2018-11-03T07:57:08.431Z,102508.81
2018-11-03T07:59:38.846Z,102501.28
2018-11-03T08:02:08.583Z,102505.64
2018-11-03T08:04:38.031Z,102505.35
2018-11-03T08:07:07.791Z,102504.87
2018-11-03T08:09:37.194Z,102501.54
2018-11-03T08:12:06.636Z,102498.45
2018-11-03T08:14:36.040Z,102496.59
2018-11-03T08:17:05.698Z,102498.88
2018-11-03T08:19:35.166Z,102492.27
2018-11-03T08:22:04.735Z,102490.55
2018-11-03T08:24:34.218Z,102487.59
2018-11-03T08:27:04.554Z,102490.05
2018-11-03T08:29:34.138Z,102481.09
2018-11-03T08:32:03.845Z,102477.87
2018-11-03T08:34:33.248Z,102487.86
2018-11-03T08:37:02.724Z,102484.04
2018-11-03T08:39:32.168Z,102480.00
2018-11-03T08:42:01.580Z,102477.47
2018-11-03T08:44:30.985Z,102472.06
2018-11-03T08:47:00.582Z,102471.83
2018-11-03T08:49:30.030Z,102465.98
2018-11-03T08:51:59.775Z,102472.81
2018-11-03T08:54:29.223Z,102464.47
2018-11-03T08:56:58.882Z,102466.10
2018-11-03T08:59:29.231Z,102471.38
2018-11-03T09:01:58.648Z,102473.14
2018-11-03T09:04:28.059Z,102480.91
2018-11-03T09:06:57.682Z,102470.83
2018-11-03T09:09:27.073Z,102464.98
2018-11-03T09:11:56.511Z,102457.84
2018-11-03T09:14:25.918Z,102465.55
2018-11-03T09:16:55.847Z,102462.31
2018-11-03T09:19:25.750Z,102464.84
2018-11-03T09:21:55.284Z,102467.24
2018-11-03T09:24:24.563Z,102463.14
2018-11-03T09:31:56.140Z,102453.26
2018-11-03T09:34:25.593Z,102450.05
2018-11-03T09:36:55.167Z,102444.42
2018-11-03T09:39:24.748Z,102451.33
2018-11-03T09:41:54.150Z,102451.31
2018-11-03T09:44:23.610Z,102449.20
2018-11-03T09:46:53.114Z,102451.27
2018-11-03T09:49:22.554Z,102452.21
2018-11-03T09:51:52.171Z,102451.29
2018-11-03T09:54:21.631Z,102445.13
2018-11-03T09:56:51.684Z,102440.06
2018-11-03T09:59:21.089Z,102446.09
2018-11-03T10:01:50.595Z,102441.19
2018-11-03T10:04:20.008Z,102448.73
2018-11-03T10:06:49.783Z,102442.64
2018-11-03T10:09:19.175Z,102440.03
2018-11-03T10:11:48.680Z,102436.16
2018-11-03T10:14:18.124Z,102427.42
2018-11-03T10:16:47.634Z,102437.89
2018-11-03T10:19:17.134Z,102422.23
2018-11-03T10:21:46.797Z,102415.20
2018-11-03T10:24:16.264Z,102415.60
2018-11-03T10:26:45.799Z,102410.78
2018-11-03T10:29:15.267Z,102413.27
2018-11-03T10:31:44.772Z,102409.34
2018-11-03T10:34:14.355Z,102401.97
2018-11-03T10:36:43.892Z,102405.73
2018-11-03T10:39:14.025Z,102407.02
2018-11-03T10:41:43.645Z,102405.34
2018-11-03T10:44:13.328Z,102404.11
2018-11-03T10:46:42.956Z,102404.10
2018-11-03T10:49:12.717Z,102396.45
2018-11-03T10:51:42.152Z,102390.82
2018-11-03T10:54:12.149Z,102387.52
2018-11-03T10:56:41.607Z,102388.62
2018-11-03T10:59:11.080Z,102387.16
2018-11-03T11:01:45.681Z,102378.13
2018-11-03T11:04:20.437Z,102376.92
2018-11-03T11:06:55.146Z,102376.91
2018-11-03T11:09:29.756Z,102377.14
2018-11-03T11:12:04.619Z,102370.72
2018-11-03T11:14:34.135Z,102367.94
2018-11-03T11:17:03.835Z,102373.02
2018-11-03T11:19:33.427Z,102367.06
2018-11-03T11:22:03.040Z,102373.64
2018-11-03T11:24:32.965Z,102365.90
2018-11-03T11:27:02.524Z,102367.23
2018-11-03T11:29:31.985Z,102361.78
2018-11-03T11:32:01.387Z,102353.60
2018-11-03T11:34:30.833Z,102356.06
2018-11-03T11:37:00.623Z,102360.75
2018-11-03T11:39:30.175Z,102345.33
2018-11-03T11:41:59.648Z,102346.48
2018-11-03T11:44:29.243Z,102337.20
2018-11-03T11:46:58.746Z,102337.23
2018-11-03T11:49:28.321Z,102337.17
2018-11-03T11:51:57.912Z,102333.32
2018-11-03T11:54:27.573Z,102335.63
2018-11-03T11:56:57.065Z,102335.13
2018-11-03T11:59:26.679Z,102334.03
2018-11-03T12:01:56.411Z,102334.81
2018-11-03T12:04:26.071Z,102334.94
2018-11-03T12:06:55.661Z,102328.59
2018-11-03T12:09:25.235Z,102329.43
2018-11-03T12:11:54.724Z,102320.57
2018-11-03T12:14:24.404Z,102325.58
2018-11-03T12:16:53.900Z,102318.57
2018-11-03T12:19:23.343Z,102315.38
2018-11-03T12:21:53.071Z,102311.86
2018-11-03T12:24:22.504Z,102311.89
2018-11-03T12:26:52.496Z,102310.39
2018-11-03T12:29:21.968Z,102298.05
2018-11-03T12:31:51.408Z,102291.98
2018-11-03T12:34:21.132Z,102298.73
2018-11-03T12:36:50.698Z,102283.80
2018-11-03T12:39:20.231Z,102286.69
2018-11-03T12:41:49.727Z,102280.71
2018-11-03T12:44:19.288Z,102280.23
2018-11-03T12:46:49.164Z,102270.46
2018-11-03T12:49:18.580Z,102272.81
2018-11-03T12:51:48.036Z,102271.23
2018-11-03T12:54:17.764Z,102267.97
2018-11-03T12:56:47.267Z,102264.35
2018-11-03T12:59:17.067Z,102260.03
2018-11-03T13:01:46.609Z,102261.72
2018-11-03T13:04:16.159Z,102253.48
2018-11-03T13:06:45.705Z,102247.34
2018-11-03T13:09:15.146Z,102253.13
2018-11-03T13:11:44.957Z,102248.11
2018-11-03T13:14:15.462Z,102243.97
2018-11-03T13:16:44.899Z,102233.81
2018-11-03T13:19:14.312Z,102230.11
2018-11-03T13:21:43.810Z,102233.33
2018-11-03T13:24:13.256Z,102225.03
2018-11-03T13:26:42.737Z,102230.18
2018-11-03T13:29:12.155Z,102223.03
2018-11-03T13:31:41.569Z,102215.68
2018-11-03T13:34:11.155Z,102220.16
2018-11-03T13:36:40.954Z,102214.94
2018-11-03T13:39:10.950Z,102210.82
2018-11-03T13:41:40.355Z,102218.19
2018-11-03T13:44:09.776Z,102212.94
2018-11-03T13:46:39.188Z,102211.66
2018-11-03T13:49:08.731Z,102208.20
2018-11-03T13:51:38.167Z,102206.47
2018-11-03T13:54:07.602Z,102198.38
2018-11-03T13:56:37.094Z,102197.73
2018-11-03T13:59:07.860Z,102203.22
2018-11-03T14:01:37.775Z,102204.42
2018-11-03T14:04:07.321Z,102193.05
2018-11-03T14:06:36.747Z,102193.34
2018-11-03T14:09:08.128Z,102187.80
2018-11-03T14:11:37.523Z,102188.90
2018-11-03T14:14:07.215Z,102184.15
2018-11-03T14:16:36.836Z,102176.16
2018-11-03T14:19:06.480Z,102172.81
2018-11-03T14:21:36.118Z,102173.44
2018-11-03T14:24:05.960Z,102168.45
2018-11-03T14:26:35.355Z,102163.69
2018-11-03T14:29:05.725Z,102159.36
2018-11-03T14:31:35.274Z,102150.06
2018-11-03T14:34:04.981Z,102154.25
2018-11-03T14:36:34.504Z,102143.00
2018-11-03T14:39:04.442Z,102137.15
2018-11-03T14:41:33.897Z,102135.46
2018-11-03T14:44:03.293Z,102138.89
2018-11-03T14:46:32.759Z,102133.52
2018-11-03T14:49:08.831Z,102134.42
2018-11-03T14:51:38.355Z,102133.38
2018-11-03T14:54:07.783Z,102124.78
2018-11-03T14:56:37.267Z,102124.04
2018-11-03T14:59:07.077Z,102118.80
2018-11-03T15:01:36.733Z,102114.84
2018-11-03T15:04:06.740Z,102107.04
2018-11-03T15:06:36.283Z,102108.08
2018-11-03T15:09:07.863Z,102106.73
2018-11-03T15:11:37.940Z,102104.73
2018-11-03T15:14:08.771Z,102109.91
2018-11-03T15:16:38.387Z,102100.38
2018-11-03T15:19:08.387Z,102102.53
2018-11-03T15:21:37.803Z,102096.98
2018-11-03T15:24:07.307Z,102100.05
2018-11-03T15:26:37.003Z,102094.48
2018-11-03T15:29:06.515Z,102094.52
2018-11-03T15:31:36.267Z,102091.08
2018-11-03T15:34:06.151Z,102088.47
2018-11-03T15:36:35.786Z,102079.44
2018-11-03T15:39:06.422Z,102076.91
2018-11-03T15:41:35.983Z,102064.78
2018-11-03T15:44:05.684Z,102062.62
2018-11-03T15:46:35.283Z,102070.42
2018-11-03T15:49:04.971Z,102061.76
2018-11-03T15:51:34.746Z,102064.42
2018-11-03T15:54:04.499Z,102066.20
2018-11-03T15:56:34.063Z,102061.00
2018-11-03T15:59:04.004Z,102065.34
2018-11-03T16:01:33.595Z,102061.45
2018-11-03T16:04:03.424Z,102053.66
2018-11-03T16:06:33.263Z,102053.25
2018-11-03T16:09:02.995Z,102054.98
2018-11-03T16:11:32.856Z,102055.45
2018-11-03T16:14:02.667Z,102052.44
2018-11-03T16:16:32.462Z,102054.62
2018-11-03T16:19:02.092Z,102057.23
2018-11-03T16:21:31.679Z,102054.20
2018-11-03T16:24:01.258Z,102052.05
2018-11-03T16:26:30.971Z,102055.09
2018-11-03T16:29:00.503Z,102051.20
2018-11-03T16:31:30.562Z,102045.14
2018-11-03T16:34:00.897Z,102048.62
2018-11-03T16:36:30.329Z,102054.22
2018-11-03T16:38:59.764Z,102049.90
2018-11-03T16:41:29.212Z,102056.39
2018-11-03T16:43:58.670Z,102054.64
2018-11-03T16:46:28.051Z,102054.64
2018-11-03T16:48:57.520Z,102058.48
2018-11-03T16:51:27.375Z,102050.69
2018-11-03T16:53:56.832Z,102054.98
2018-11-03T16:56:26.605Z,102052.38
2018-11-03T16:58:56.066Z,102046.27
2018-11-03T17:01:25.454Z,102045.78
2018-11-03T17:03:54.884Z,102043.58
2018-11-03T17:06:25.158Z,102035.80
2018-11-03T17:08:56.445Z,102036.18
2018-11-03T17:11:28.069Z,102032.25
2018-11-03T17:13:58.513Z,102031.36
2018-11-03T17:16:29.281Z,102027.00
2018-11-03T17:18:58.828Z,102020.92
2018-11-03T17:21:28.278Z,102025.65
2018-11-03T17:23:58.182Z,102020.45
2018-11-03T17:26:27.992Z,102020.88
2018-11-03T17:28:57.424Z,102024.75
2018-11-03T17:31:26.888Z,102026.89
2018-11-03T17:33:56.343Z,102020.15
2018-11-03T17:36:25.864Z,102017.49
2018-11-03T17:38:55.243Z,102022.16
2018-11-03T17:41:24.689Z,102013.98
2018-11-03T17:43:54.734Z,102017.83
2018-11-03T17:46:24.640Z,102019.10
2018-11-03T17:48:54.070Z,102023.85
2018-11-03T17:51:23.483Z,102016.09
2018-11-03T17:53:52.898Z,102018.73
2018-11-03T17:56:22.350Z,102011.02
2018-11-03T17:58:51.741Z,102006.69
2018-11-03T18:01:21.438Z,102015.75
2018-11-03T18:03:50.618Z,102002.33
2018-11-03T18:06:20.073Z,102002.36
2018-11-03T18:08:49.462Z,101998.88
2018-11-03T18:11:19.114Z,101992.41
2018-11-03T18:13:48.539Z,101992.80
2018-11-03T18:16:17.940Z,101991.03
2018-11-03T18:18:47.481Z,101986.28
2018-11-03T18:21:16.968Z,101985.41
2018-11-03T18:23:46.589Z,101981.50
2018-11-03T18:26:16.155Z,101978.43
2018-11-03T18:28:45.679Z,101980.14
2018-11-03T18:31:16.011Z,101977.98
2018-11-03T18:33:45.403Z,101976.27
2018-11-03T18:36:14.859Z,101979.24
2018-11-03T18:38:44.357Z,101974.95
2018-11-03T18:41:13.848Z,101974.91
2018-11-03T18:43:43.261Z,101970.58
2018-11-03T18:46:12.770Z,101968.48
2018-11-03T18:48:42.274Z,101974.07
2018-11-03T18:51:11.772Z,101961.98
2018-11-03T18:53:41.227Z,101966.25
2018-11-03T18:56:10.631Z,101964.95
2018-11-03T18:58:40.107Z,101961.47
2018-11-03T19:01:09.526Z,101962.27
2018-11-03T19:03:38.931Z,101969.54
2018-11-03T19:06:11.409Z,101963.50
2018-11-03T19:08:41.200Z,101952.70
2018-11-03T19:11:10.820Z,101953.13
2018-11-03T19:13:40.451Z,101952.28
2018-11-03T19:16:09.970Z,101955.70
2018-11-03T19:18:39.422Z,101950.92
2018-11-03T19:21:08.927Z,101951.75
2018-11-03T19:23:38.370Z,101950.84
2018-11-03T19:26:07.823Z,101945.64
2018-11-03T19:28:37.421Z,101940.02
2018-11-03T19:31:07.071Z,101945.64
2018-11-03T19:33:36.563Z,101946.02
2018-11-03T19:36:06.656Z,101941.19
2018-11-03T19:38:36.073Z,101941.64
2018-11-03T19:41:05.614Z,101940.35
2018-11-03T19:43:35.407Z,101934.77
2018-11-03T19:46:04.815Z,101934.77
2018-11-03T19:48:34.235Z,101928.69
2018-11-03T19:51:03.825Z,101929.56
2018-11-03T19:53:33.332Z,101934.69
2018-11-03T19:56:02.752Z,101930.77
2018-11-03T19:58:32.239Z,101927.35
2018-11-03T20:01:01.773Z,101930.36
2018-11-03T20:03:31.207Z,101929.06
2018-11-03T20:06:00.656Z,101922.19
2018-11-03T20:08:30.055Z,101929.93
2018-11-03T20:10:59.464Z,101926.84
2018-11-03T20:13:28.867Z,101920.80
2018-11-03T20:15:58.239Z,101913.39
2018-11-03T20:18:27.615Z,101920.22
2018-11-03T20:20:57.927Z,101915.02
2018-11-03T20:23:27.554Z,101912.74
2018-11-03T20:25:57.247Z,101908.37
2018-11-03T20:28:27.636Z,101911.27
2018-11-03T20:30:57.113Z,101902.23
2018-11-03T20:33:26.585Z,101896.93
2018-11-03T20:35:56.601Z,101902.45
2018-11-03T20:38:26.285Z,101893.47
2018-11-03T20:40:55.842Z,101891.72
2018-11-03T20:43:25.413Z,101885.46
2018-11-03T20:45:54.936Z,101881.30
2018-11-03T20:48:24.688Z,101875.19
2018-11-03T20:51:00.130Z,101880.81
2018-11-03T20:53:30.557Z,101872.73
2018-11-03T20:56:00.688Z,101871.41
2018-11-03T20:58:30.401Z,101882.55
2018-11-03T21:01:00.160Z,101879.10
2018-11-03T21:03:29.840Z,101873.94
2018-11-03T21:05:59.901Z,101879.92
2018-11-03T21:08:29.574Z,101878.27
2018-11-03T21:10:59.141Z,101879.05
2018-11-03T21:13:28.661Z,101870.44
2018-11-03T21:15:58.302Z,101875.13
2018-11-03T21:18:28.148Z,101867.40
2018-11-03T21:20:57.927Z,101861.34
2018-11-03T21:23:28.669Z,101864.77
2018-11-03T21:25:59.672Z,101857.48
2018-11-03T21:28:29.856Z,101858.27
2018-11-03T21:31:00.265Z,101854.45
2018-11-03T21:33:30.122Z,101841.13
2018-11-03T21:36:00.106Z,101839.05
2018-11-03T21:38:31.397Z,101837.71
2018-11-03T21:41:00.952Z,101835.55
2018-11-03T21:43:30.456Z,101825.15
2018-11-03T21:46:00.243Z,101825.53
2018-11-03T21:48:30.693Z,101834.64
2018-11-03T21:51:00.816Z,101833.27
2018-11-03T21:53:31.148Z,101838.79
2018-11-03T21:56:00.755Z,101831.50
2018-11-03T21:58:30.580Z,101827.91
2018-11-03T22:01:00.591Z,101824.13
2018-11-03T22:03:30.965Z,101816.34
2018-11-03T22:06:00.826Z,101822.80
2018-11-03T22:08:30.734Z,101814.08
2018-11-03T22:11:00.674Z,101814.95
2018-11-03T22:13:30.357Z,101806.39
2018-11-03T22:16:00.231Z,101799.99
2018-11-03T22:18:30.102Z,101802.84
2018-11-03T22:20:59.671Z,101794.33
2018-11-03T22:23:29.260Z,101788.81
2018-11-03T22:25:59.089Z,101784.97
2018-11-03T22:28:28.738Z,101781.06
2018-11-03T22:30:58.248Z,101782.77
2018-11-03T22:33:27.907Z,101783.19
2018-11-03T22:35:58.193Z,101773.73
2018-11-03T22:38:27.899Z,101768.16
2018-11-03T22:40:57.595Z,101762.97
2018-11-03T22:43:27.217Z,101759.93
2018-11-03T22:45:56.911Z,101756.98
2018-11-03T22:48:26.665Z,101753.57
2018-11-03T22:50:56.969Z,101751.87
2018-11-03T22:53:27.276Z,101745.37
2018-11-03T22:55:57.338Z,101741.05
2018-11-03T22:58:27.145Z,101734.64
2018-11-03T23:00:57.919Z,101728.15
2018-11-03T23:03:28.238Z,101730.22
2018-11-03T23:05:58.057Z,101721.58
2018-11-03T23:08:27.886Z,101711.67
2018-11-03T23:10:58.157Z,101711.27
2018-11-03T23:13:27.962Z,101715.03
2018-11-03T23:15:57.653Z,101704.34
2018-11-03T23:18:27.479Z,101713.69
2018-11-03T23:20:57.220Z,101708.07
2018-11-03T23:23:26.940Z,101701.13
2018-11-03T23:25:57.174Z,101699.47
2018-11-03T23:28:27.386Z,101696.06
2018-11-03T23:30:57.079Z,101699.06
2018-11-03T23:33:27.369Z,101692.70
2018-11-03T23:35:56.973Z,101688.42
2018-11-03T23:38:26.488Z,101684.55
2018-11-03T23:40:56.092Z,101680.64
2018-11-03T23:43:25.542Z,101679.77
2018-11-03T23:45:54.982Z,101668.17
2018-11-03T23:48:24.402Z,101661.27
2018-11-03T23:50:53.908Z,101659.10
2018-11-03T23:53:23.395Z,101656.52
2018-11-03T23:55:53.758Z,101656.56
2018-11-03T23:58:23.146Z,101651.78
